Time;durP1;ratioP1;P1;durP2;ratioP2;P2;SDS_P1;SDS_P2;PMS_P1;PMS_P2;Temp;Humidity;BMP_temperature;BMP_pressure;BME280_temperature;BME280_humidity;BME280_pressure;Samples;Min_cycle;Max_cycle;Signal;HPM_P1;HPM_P2
2022/04/25 00:02:25;;;;;;;9.37;4.50;;;15.40;81.20;;;;;;5016573;28;20284;-90
2022/04/25 00:04:51;;;;;;;11.03;4.87;;;15.40;81.90;;;;;;5015782;28;20178;-90
2022/04/25 00:07:16;;;;;;;9.27;4.17;;;15.50;81.20;;;;;;5016320;28;20183;-90
2022/04/25 00:09:44;;;;;;;6.53;4.07;;;15.50;81.40;;;;;;5016062;28;20195;-90
2022/04/25 00:12:11;;;;;;;10.97;4.47;;;15.30;82.60;;;;;;5016175;28;20188;-90
2022/04/25 00:14:37;;;;;;;6.93;4.53;;;15.30;82.50;;;;;;5016289;28;20185;-93
2022/04/25 00:17:02;;;;;;;7.47;4.17;;;15.50;81.60;;;;;;5016645;28;20187;-91
2022/04/25 00:19:28;;;;;;;8.23;4.30;;;15.40;81.70;;;;;;5016025;28;20181;-90
2022/04/25 00:21:54;;;;;;;6.03;3.80;;;15.10;83.40;;;;;;5016470;28;20220;-90
2022/04/25 00:24:19;;;;;;;5.57;3.90;;;15.00;83.50;;;;;;5016291;28;20261;-90
2022/04/25 00:26:45;;;;;;;8.13;4.33;;;15.20;83.50;;;;;;5016207;28;20187;-89
2022/04/25 00:29:12;;;;;;;6.80;4.10;;;15.10;83.70;;;;;;5016315;28;20194;-90
2022/04/25 00:31:41;;;;;;;9.67;4.40;;;15.00;84.20;;;;;;5016104;28;20208;-90
2022/04/25 00:34:07;;;;;;;9.67;3.97;;;14.90;84.50;;;;;;5015902;28;20263;-91
2022/04/25 00:36:33;;;;;;;6.10;4.00;;;14.80;84.80;;;;;;5016038;28;20637;-92
2022/04/25 00:38:58;;;;;;;7.10;4.03;;;14.90;84.80;;;;;;5015611;28;20215;-90
2022/04/25 00:41:24;;;;;;;7.60;4.20;;;14.70;85.60;;;;;;5015738;28;20226;-91
2022/04/25 00:43:59;;;;;;;7.17;4.30;;;14.70;85.70;;;;;;5015671;28;20190;-90
2022/04/25 00:46:26;;;;;;;8.97;4.33;;;14.60;86.70;;;;;;5016336;28;20281;-90
2022/04/25 00:48:52;;;;;;;9.53;4.90;;;14.60;86.40;;;;;;5016333;28;20173;-90
2022/04/25 00:51:19;;;;;;;15.97;5.17;;;14.70;85.80;;;;;;5016381;28;20179;-90
2022/04/25 00:53:47;;;;;;;11.93;4.40;;;14.80;85.40;;;;;;5015918;28;20400;-90
2022/04/25 00:56:17;;;;;;;10.40;4.13;;;14.70;85.80;;;;;;5015737;28;20665;-88
2022/04/25 00:58:43;;;;;;;11.00;4.60;;;14.50;86.90;;;;;;5015736;28;20295;-90
2022/04/25 01:01:10;;;;;;;11.60;4.73;;;14.60;86.90;;;;;;5015609;28;20569;-90
2022/04/25 01:03:36;;;;;;;19.13;5.57;;;14.40;87.70;;;;;;5015858;28;20179;-90
2022/04/25 01:06:02;;;;;;;18.63;5.73;;;14.40;87.70;;;;;;5016343;28;20180;-90
2022/04/25 01:08:27;;;;;;;16.63;5.03;;;14.20;88.80;;;;;;5016440;28;20193;-91
2022/04/25 01:10:53;;;;;;;11.20;4.60;;;14.40;88.20;;;;;;5022507;28;20190;-90
2022/04/25 01:13:19;;;;;;;9.83;4.50;;;14.30;88.30;;;;;;5023205;28;20161;-90
2022/04/25 01:15:45;;;;;;;10.63;4.87;;;14.30;88.50;;;;;;5020728;28;20183;-93
2022/04/25 01:18:10;;;;;;;9.57;5.50;;;14.20;89.10;;;;;;5019767;28;20239;-90
2022/04/25 01:20:37;;;;;;;10.07;4.87;;;14.10;89.90;;;;;;5019312;28;20187;-90
2022/04/25 01:28:35;;;;;;;8.17;5.47;;;13.80;90.60;;;;;;5037295;28;20186;-89
2022/04/25 01:31:01;;;;;;;8.03;5.27;;;13.80;91.00;;;;;;5019413;28;20200;-90
2022/04/25 01:33:27;;;;;;;10.47;4.90;;;14.00;90.60;;;;;;5019579;28;20225;-90
2022/04/25 01:35:52;;;;;;;8.47;4.93;;;13.90;91.00;;;;;;5019338;28;20187;-89
2022/04/25 01:38:18;;;;;;;9.00;5.47;;;13.70;91.30;;;;;;5019145;28;20192;-89
2022/04/25 01:40:44;;;;;;;8.47;5.50;;;13.70;91.70;;;;;;5019165;28;20233;-90
2022/04/25 01:43:09;;;;;;;7.00;5.00;;;13.70;91.70;;;;;;5019358;28;20545;-90
2022/04/25 01:45:35;;;;;;;9.60;5.03;;;13.40;92.60;;;;;;5019025;28;20185;-90
2022/04/25 01:48:00;;;;;;;11.03;5.50;;;13.50;92.50;;;;;;5019118;28;20179;-90
2022/04/25 01:50:26;;;;;;;10.23;6.03;;;13.50;92.50;;;;;;5018986;28;20226;-90
2022/04/25 01:52:52;;;;;;;8.93;5.47;;;13.60;92.60;;;;;;5018872;28;20182;-90
2022/04/25 01:55:18;;;;;;;9.43;5.47;;;13.30;93.40;;;;;;5018874;28;20625;-90
2022/04/25 01:57:44;;;;;;;11.37;5.60;;;13.20;93.80;;;;;;5018893;28;20632;-90
2022/04/25 02:00:11;;;;;;;9.73;5.20;;;13.20;94.30;;;;;;5019076;28;20187;-90
2022/04/25 02:02:37;;;;;;;11.13;5.57;;;13.30;94.00;;;;;;5019102;28;20207;-89
2022/04/25 02:05:06;;;;;;;11.03;5.63;;;13.30;94.00;;;;;;5019290;28;20179;-90
2022/04/25 02:07:32;;;;;;;10.30;5.60;;;13.40;93.90;;;;;;5018180;28;20238;-90
2022/04/25 02:09:58;;;;;;;10.97;5.47;;;13.30;94.50;;;;;;5018704;28;20190;-90
2022/04/25 02:12:24;;;;;;;10.37;5.90;;;13.20;94.90;;;;;;5018481;28;20186;-90
2022/04/25 02:14:50;;;;;;;8.43;5.90;;;13.20;95.20;;;;;;5019028;28;20624;-90
2022/04/25 02:17:15;;;;;;;10.50;5.80;;;13.00;95.60;;;;;;5018653;28;20208;-89
2022/04/25 02:19:43;;;;;;;9.10;5.60;;;13.20;95.30;;;;;;5018288;28;20738;-90
2022/04/25 02:22:10;;;;;;;12.17;6.40;;;13.00;95.70;;;;;;5018412;28;20211;-90
2022/04/25 02:24:37;;;;;;;11.57;5.97;;;13.00;96.10;;;;;;5018431;28;20175;-90
2022/04/25 02:27:04;;;;;;;9.03;6.10;;;12.90;96.40;;;;;;5017734;28;20667;-90
2022/04/25 02:29:35;;;;;;;9.43;5.73;;;13.00;96.30;;;;;;5017825;28;20233;-90
2022/04/25 02:32:02;;;;;;;11.67;6.17;;;12.80;96.80;;;;;;5018105;28;20182;-90
2022/04/25 02:34:29;;;;;;;9.33;6.13;;;12.90;96.70;;;;;;5018195;28;20266;-90
2022/04/25 02:36:58;;;;;;;10.73;6.80;;;12.60;97.50;;;;;;5018390;28;20542;-90
2022/04/25 02:39:24;;;;;;;10.47;6.33;;;12.70;97.50;;;;;;5018561;28;20529;-90
2022/04/25 02:41:50;;;;;;;11.67;6.57;;;12.70;97.60;;;;;;5018491;28;20217;-90
2022/04/25 02:44:17;;;;;;;13.33;6.43;;;12.90;97.50;;;;;;5018364;28;20206;-90
2022/04/25 02:46:43;;;;;;;13.13;7.47;;;13.10;96.70;;;;;;5018331;28;20183;-90
2022/04/25 02:49:08;;;;;;;13.03;6.97;;;13.20;96.40;;;;;;5018292;28;20528;-90
2022/04/25 02:51:34;;;;;;;11.93;7.07;;;13.40;96.30;;;;;;5017827;28;20222;-89
2022/04/25 02:54:00;;;;;;;11.30;6.60;;;13.20;96.40;;;;;;5017837;28;20183;-89
2022/04/25 02:56:25;;;;;;;12.33;7.07;;;13.20;96.60;;;;;;5017814;28;20188;-91
2022/04/25 02:58:51;;;;;;;12.00;6.70;;;12.90;97.50;;;;;;5017738;28;20620;-90
2022/04/25 03:01:17;;;;;;;11.73;7.30;;;12.50;98.50;;;;;;5017803;28;20268;-91
2022/04/25 03:03:42;;;;;;;13.17;7.43;;;12.50;98.90;;;;;;5017498;28;20184;-90
2022/04/25 03:06:09;;;;;;;16.80;8.20;;;12.60;98.90;;;;;;5017517;28;20188;-91
2022/04/25 03:08:37;;;;;;;13.33;7.40;;;12.70;98.70;;;;;;5017310;28;20198;-91
2022/04/25 03:11:04;;;;;;;13.83;7.93;;;12.80;98.10;;;;;;5017485;28;20181;-90
2022/04/25 03:13:30;;;;;;;14.27;6.80;;;12.60;98.60;;;;;;5017336;28;20646;-91
2022/04/25 03:15:56;;;;;;;14.23;6.80;;;12.40;99.50;;;;;;5017577;28;20179;-90
2022/04/25 03:18:23;;;;;;;9.33;7.13;;;12.30;99.90;;;;;;5017439;28;20576;-91
2022/04/25 03:20:50;;;;;;;17.07;7.37;;;12.20;99.90;;;;;;5016912;28;20229;-90
2022/04/25 03:23:20;;;;;;;13.90;7.70;;;12.20;99.90;;;;;;5017349;28;20180;-90
2022/04/25 03:25:47;;;;;;;16.20;7.90;;;12.20;99.90;;;;;;5017398;28;20187;-91
2022/04/25 03:28:13;;;;;;;11.80;8.17;;;12.40;99.90;;;;;;5017256;28;20586;-91
2022/04/25 03:30:39;;;;;;;13.97;7.63;;;12.30;99.90;;;;;;5017323;28;20183;-91
2022/04/25 03:33:05;;;;;;;13.13;7.90;;;12.10;99.90;;;;;;5017053;28;20185;-91
2022/04/25 03:35:32;;;;;;;13.60;7.70;;;12.00;99.90;;;;;;5017427;28;20190;-90
2022/04/25 03:37:58;;;;;;;15.73;7.73;;;11.90;99.90;;;;;;5016803;28;20265;-90
2022/04/25 03:40:24;;;;;;;15.37;7.80;;;11.80;99.90;;;;;;5016796;28;20724;-90
2022/04/25 03:42:50;;;;;;;13.13;7.70;;;12.00;99.90;;;;;;5016840;28;20184;-90
2022/04/25 03:45:18;;;;;;;15.73;8.43;;;11.90;99.90;;;;;;5017089;28;20209;-90
2022/04/25 03:47:45;;;;;;;13.27;8.13;;;11.80;99.90;;;;;;5016859;28;20181;-90
2022/04/25 03:50:11;;;;;;;14.33;8.20;;;11.80;99.90;;;;;;5016865;28;20326;-91
2022/04/25 03:52:39;;;;;;;15.67;8.50;;;11.70;99.90;;;;;;5017519;28;20194;-90
2022/04/25 03:57:55;;;;;;;16.73;8.20;;;11.70;99.90;;;;;;5034691;28;20200;-90
2022/04/25 04:00:21;;;;;;;16.80;9.00;;;11.70;99.90;;;;;;5018183;28;20266;-89
2022/04/25 04:02:47;;;;;;;12.73;8.57;;;11.60;99.90;;;;;;5017605;28;20461;-90
2022/04/25 04:05:13;;;;;;;18.00;9.00;;;11.70;99.90;;;;;;5016933;28;20178;-90
2022/04/25 04:07:40;;;;;;;18.53;9.00;;;11.70;99.90;;;;;;5017811;28;20174;-91
2022/04/25 04:10:07;;;;;;;17.13;10.03;;;11.70;99.90;;;;;;5019154;28;20183;-90
2022/04/25 04:12:34;;;;;;;18.27;9.50;;;11.90;99.90;;;;;;5020173;28;20182;-90
2022/04/25 04:15:07;;;;;;;18.07;9.73;;;12.00;99.90;;;;;;5021721;28;20210;-90
2022/04/25 04:17:33;;;;;;;18.10;9.80;;;11.90;99.90;;;;;;5020325;28;20205;-91
2022/04/25 04:19:59;;;;;;;17.47;10.33;;;11.80;99.90;;;;;;5018137;28;20188;-91
2022/04/25 04:22:29;;;;;;;15.03;9.37;;;11.70;99.90;;;;;;5016749;28;20214;-90
2022/04/25 04:25:03;;;;;;;17.23;9.17;;;11.70;99.90;;;;;;5016207;28;20180;-90
2022/04/25 04:27:32;;;;;;;18.77;9.83;;;11.70;99.90;;;;;;5016389;28;20186;-90
2022/04/25 04:30:08;;;;;;;18.60;9.70;;;11.70;99.90;;;;;;5016077;28;20206;-91
2022/04/25 04:32:34;;;;;;;18.53;9.10;;;11.70;99.90;;;;;;5016198;28;20196;-90
2022/04/25 04:35:01;;;;;;;17.67;8.83;;;11.50;99.90;;;;;;5016093;28;20186;-89
2022/04/25 04:37:32;;;;;;;23.17;9.10;;;11.60;99.90;;;;;;5016084;28;20178;-89
2022/04/25 04:42:42;;;;;;;25.97;9.40;;;11.50;99.90;;;;;;5033531;28;20511;-91
2022/04/25 04:45:11;;;;;;;21.20;9.70;;;11.50;99.90;;;;;;5016337;28;20266;-91
2022/04/25 04:47:38;;;;;;;19.80;10.67;;;11.40;99.90;;;;;;5017820;28;20185;-91
2022/04/25 04:50:05;;;;;;;22.10;10.37;;;11.40;99.90;;;;;;5021187;28;20180;-91
2022/04/25 04:52:31;;;;;;;20.80;10.53;;;11.50;99.90;;;;;;5019294;28;20546;-90
2022/04/25 04:54:56;;;;;;;19.63;10.40;;;11.60;99.90;;;;;;5010473;28;20253;-90
2022/04/25 04:57:22;;;;;;;14.77;9.80;;;11.70;99.90;;;;;;5004699;28;20190;-91
2022/04/25 04:59:48;;;;;;;21.90;10.70;;;11.60;99.90;;;;;;5015589;28;20307;-90
2022/04/25 05:02:16;;;;;;;19.73;11.30;;;11.70;99.90;;;;;;5015448;28;20208;-91
2022/04/25 05:04:41;;;;;;;17.07;10.90;;;11.80;99.90;;;;;;5016000;28;20265;-90
2022/04/25 05:07:08;;;;;;;15.87;11.03;;;11.80;99.90;;;;;;5015815;28;20223;-91
2022/04/25 05:09:34;;;;;;;20.90;11.30;;;11.80;99.90;;;;;;5015786;28;20181;-90
2022/04/25 05:11:59;;;;;;;17.83;11.10;;;11.60;99.90;;;;;;5015703;28;20183;-91
2022/04/25 05:14:26;;;;;;;21.60;12.07;;;11.70;99.90;;;;;;5015151;28;20202;-90
2022/04/25 05:16:51;;;;;;;19.13;11.70;;;12.00;99.90;;;;;;5015591;28;20178;-91
2022/04/25 05:19:17;;;;;;;19.43;11.40;;;11.90;99.90;;;;;;5015632;28;20206;-89
2022/04/25 05:21:43;;;;;;;26.60;11.60;;;12.00;99.90;;;;;;5015399;28;20215;-90
2022/04/25 05:24:09;;;;;;;19.77;11.43;;;11.90;99.90;;;;;;5015585;28;20176;-91
2022/04/25 05:26:35;;;;;;;18.17;10.97;;;11.80;99.90;;;;;;5022698;28;20190;-87
2022/04/25 05:29:01;;;;;;;21.50;11.73;;;11.70;99.90;;;;;;5019926;28;20232;-90
2022/04/25 05:31:27;;;;;;;21.13;12.27;;;11.60;99.90;;;;;;5015476;28;20540;-91
2022/04/25 05:33:53;;;;;;;20.57;11.97;;;11.70;99.90;;;;;;5015485;28;20215;-90
2022/04/25 05:36:18;;;;;;;19.17;12.07;;;11.70;99.90;;;;;;5014884;28;20232;-88
2022/04/25 05:38:44;;;;;;;21.70;12.63;;;11.70;99.90;;;;;;5015415;28;20199;-90
2022/04/25 05:41:10;;;;;;;19.23;12.57;;;11.90;99.90;;;;;;5015490;28;20227;-91
2022/04/25 05:43:37;;;;;;;22.57;13.37;;;12.10;99.90;;;;;;5015259;28;20257;-91
2022/04/25 05:46:03;;;;;;;31.03;14.00;;;12.10;99.90;;;;;;5014460;28;20194;-90
2022/04/25 06:18:30;;;;;;;;;;;;;;;;;;;;;
2022/04/25 06:21:47;;;;;;;21.87;12.67;;;12.90;99.90;;;;;;4784886;29;20208;-93
2022/04/25 06:24:15;;;;;;;19.57;12.23;;;13.00;99.90;;;;;;4769365;29;20201;-94
2022/04/25 06:27:31;;;;;;;;;;;;;;;;;;;;;
2022/04/25 09:26:33;;;;;;;18.90;9.87;;;18.20;80.30;;;;;;5723092;23;20225;-92
2022/04/25 09:28:59;;;;;;;13.57;9.80;;;18.40;78.90;;;;;;4997259;28;20675;-93
2022/04/25 09:31:25;;;;;;;12.53;9.33;;;18.50;78.50;;;;;;4997236;28;20187;-94
2022/04/25 09:33:51;;;;;;;12.03;8.77;;;18.50;77.50;;;;;;4996580;28;20656;-95
2022/04/25 09:36:17;;;;;;;13.37;8.80;;;18.50;77.90;;;;;;4995964;28;20222;-94
2022/04/25 09:38:45;;;;;;;13.70;9.67;;;18.60;76.90;;;;;;5000476;28;20179;-94
2022/04/25 09:41:16;;;;;;;15.90;9.10;;;18.70;77.50;;;;;;5000181;28;20196;-93
2022/04/25 09:43:44;;;;;;;16.13;10.53;;;18.60;76.60;;;;;;5000579;28;20193;-94
2022/04/25 09:46:12;;;;;;;13.20;10.13;;;18.60;76.90;;;;;;5000159;28;20188;-93
2022/04/25 09:48:41;;;;;;;12.70;9.23;;;18.50;76.70;;;;;;5000048;28;20182;-94
2022/04/25 09:51:16;;;;;;;14.50;9.67;;;18.60;76.50;;;;;;4999723;28;20542;-94
2022/04/25 09:53:47;;;;;;;15.40;9.53;;;18.70;75.70;;;;;;5000344;28;20635;-94
2022/04/25 09:56:24;;;;;;;13.17;10.03;;;18.70;76.30;;;;;;5000298;28;20202;-92
2022/04/25 09:59:08;;;;;;;15.77;10.67;;;18.80;76.50;;;;;;5000349;28;20214;-93
2022/04/25 10:01:39;;;;;;;12.93;10.93;;;19.10;75.60;;;;;;4999712;28;20215;-94
2022/04/25 10:04:25;;;;;;;13.63;9.83;;;19.40;75.20;;;;;;5000557;28;20179;-93
2022/04/25 10:06:51;;;;;;;12.53;9.50;;;19.80;73.60;;;;;;4997793;28;20189;-94
2022/04/25 10:09:20;;;;;;;10.73;8.20;;;19.80;72.40;;;;;;4999706;28;20663;-95
2022/04/25 10:11:48;;;;;;;9.73;8.20;;;20.00;70.70;;;;;;4999340;28;20533;-94
2022/04/25 10:14:15;;;;;;;11.27;8.53;;;20.10;69.00;;;;;;4995049;28;20185;-93
2022/04/25 10:16:41;;;;;;;13.90;9.20;;;20.10;69.60;;;;;;4996968;28;20243;-92
2022/04/25 10:19:08;;;;;;;15.10;9.20;;;20.10;69.70;;;;;;4978674;28;20178;-93
2022/04/25 10:21:36;;;;;;;10.77;9.20;;;19.90;70.00;;;;;;4980125;28;20277;-93
2022/04/25 10:24:03;;;;;;;11.17;8.27;;;19.80;70.60;;;;;;4979247;28;20180;-93
2022/04/25 10:26:30;;;;;;;11.43;8.77;;;19.80;67.60;;;;;;4979898;28;20197;-93
2022/04/25 10:28:59;;;;;;;11.77;8.50;;;19.80;68.10;;;;;;4980528;28;20185;-93
2022/04/25 10:31:38;;;;;;;12.70;8.53;;;19.60;69.10;;;;;;4979976;28;20181;-93
2022/04/25 10:34:04;;;;;;;10.60;7.93;;;19.70;70.30;;;;;;4980108;28;20176;-94
2022/04/25 10:36:39;;;;;;;9.53;7.47;;;19.90;68.50;;;;;;4980392;28;20207;-93
2022/04/25 10:39:22;;;;;;;14.40;8.43;;;20.00;67.40;;;;;;4979924;28;20195;-93
2022/04/25 10:44:42;;;;;;;12.37;8.33;;;19.50;68.30;;;;;;4991166;28;20181;-93
2022/04/25 10:47:11;;;;;;;10.87;9.10;;;18.90;69.70;;;;;;4979564;28;20234;-94
2022/04/25 10:49:41;;;;;;;10.87;7.67;;;18.80;69.80;;;;;;4977934;28;20206;-95
2022/04/25 10:55:35;;;;;;;14.77;11.33;;;18.50;71.70;;;;;;5000143;28;20202;-96
2022/04/25 10:58:03;;;;;;;15.03;10.73;;;18.30;74.20;;;;;;4981047;28;20186;-95
2022/04/25 11:00:44;;;;;;;16.43;10.67;;;18.10;75.30;;;;;;4981171;28;20185;-96
2022/04/25 11:03:17;;;;;;;16.20;11.20;;;18.00;75.80;;;;;;4963134;28;20277;-92
2022/04/25 11:05:50;;;;;;;19.17;11.37;;;17.70;76.30;;;;;;4992907;28;20170;-95
2022/04/25 11:08:16;;;;;;;15.93;10.93;;;17.50;76.50;;;;;;4974489;28;20170;-96
2022/04/25 11:10:59;;;;;;;13.63;10.27;;;17.10;77.40;;;;;;4975982;28;20189;-95
2022/04/25 11:13:28;;;;;;;15.10;10.23;;;16.90;78.00;;;;;;4979286;28;20179;-96
2022/04/25 11:16:00;;;;;;;14.03;11.47;;;16.80;78.80;;;;;;4980141;28;20187;-95
2022/04/25 11:18:35;;;;;;;13.40;10.57;;;16.40;80.80;;;;;;4978511;28;20230;-95
2022/04/25 11:21:16;;;;;;;16.00;10.43;;;16.40;81.10;;;;;;4980111;28;20191;-95
2022/04/25 11:23:49;;;;;;;13.07;9.70;;;16.50;79.00;;;;;;4963831;28;20181;-96
2022/04/25 11:26:36;;;;;;;14.87;9.13;;;16.50;77.30;;;;;;4974367;28;20227;-96
2022/04/25 11:29:10;;;;;;;13.90;9.50;;;16.70;76.30;;;;;;4916684;28;20215;-94
2022/04/25 11:31:36;;;;;;;14.23;8.53;;;16.80;76.10;;;;;;4958363;28;20220;-95
2022/04/25 11:34:11;;;;;;;12.87;10.13;;;17.10;74.80;;;;;;4981986;28;20194;-91
2022/04/25 11:36:39;;;;;;;14.63;10.47;;;17.40;77.60;;;;;;4988512;28;20213;-94
2022/04/25 11:41:50;;;;;;;15.97;9.77;;;18.30;77.00;;;;;;4981017;28;20334;-96
2022/04/25 11:44:17;;;;;;;16.33;10.03;;;19.30;74.00;;;;;;4976518;28;20230;-96
2022/04/25 11:46:43;;;;;;;13.67;10.00;;;19.80;71.30;;;;;;4967776;28;20189;-92
2022/04/25 11:49:09;;;;;;;8.97;7.07;;;19.90;70.80;;;;;;4976592;28;20189;-96
2022/04/25 11:51:38;;;;;;;7.60;5.27;;;20.00;66.80;;;;;;4971061;28;20200;-95
2022/04/25 11:54:06;;;;;;;10.17;5.93;;;19.60;65.30;;;;;;4969973;28;20188;-93
2022/04/25 11:56:34;;;;;;;13.03;6.73;;;19.20;67.00;;;;;;4964489;28;20212;-96
2022/04/25 11:59:11;;;;;;;11.70;6.67;;;18.80;70.60;;;;;;4968641;28;20183;-95
2022/04/25 12:01:47;;;;;;;7.63;6.73;;;18.40;79.10;;;;;;4960013;28;20211;-96
2022/04/25 12:04:17;;;;;;;10.27;7.43;;;18.00;82.10;;;;;;4962976;28;20174;-96
2022/04/25 12:06:48;;;;;;;14.73;8.50;;;17.60;86.40;;;;;;4973811;28;20182;-96
2022/04/25 13:17:38;;;;;;;36.80;24.00;;;13.00;99.90;;;;;;5015165;28;20210;-88
2022/04/25 13:20:08;;;;;;;44.37;26.50;;;13.20;99.90;;;;;;4999225;28;20186;-89
2022/04/25 13:22:34;;;;;;;36.23;25.63;;;13.40;99.90;;;;;;4998948;28;20212;-89
2022/04/25 13:25:00;;;;;;;31.97;21.80;;;13.60;99.90;;;;;;4999469;28;20176;-89
2022/04/25 13:27:26;;;;;;;31.10;21.40;;;13.80;99.90;;;;;;4999961;28;20541;-89
2022/04/25 13:29:52;;;;;;;25.53;18.90;;;13.80;99.90;;;;;;4999589;28;20615;-89
2022/04/25 13:32:17;;;;;;;27.77;18.67;;;13.90;99.90;;;;;;5000337;28;20313;-89
2022/04/25 13:34:43;;;;;;;22.37;16.73;;;13.90;99.90;;;;;;5000292;28;20189;-89
2022/04/25 13:37:11;;;;;;;20.47;14.87;;;14.00;99.90;;;;;;4999341;28;20642;-88
2022/04/25 13:39:37;;;;;;;17.03;13.70;;;14.00;99.90;;;;;;4998611;28;20203;-88
2022/04/25 13:42:04;;;;;;;18.43;12.30;;;14.00;99.90;;;;;;4999736;28;20233;-89
2022/04/25 13:44:30;;;;;;;14.43;11.00;;;14.10;99.90;;;;;;4999390;28;20174;-89
2022/04/25 13:46:57;;;;;;;11.30;9.27;;;14.20;99.90;;;;;;4999357;28;20208;-89
2022/04/25 13:49:23;;;;;;;16.17;11.53;;;14.40;99.90;;;;;;4998006;28;20177;-89
2022/04/25 13:51:49;;;;;;;18.57;12.90;;;14.50;99.90;;;;;;4999620;28;20661;-89
2022/04/25 13:54:15;;;;;;;18.40;12.57;;;14.50;99.90;;;;;;4999942;28;20164;-90
2022/04/25 13:56:42;;;;;;;17.07;11.63;;;14.60;99.90;;;;;;4987070;28;20184;-89
2022/04/25 13:59:09;;;;;;;19.27;12.87;;;14.40;99.90;;;;;;4999023;28;20211;-92
2022/04/25 14:01:35;;;;;;;18.33;13.10;;;13.90;99.90;;;;;;4998366;28;20298;-91
2022/04/25 14:04:02;;;;;;;18.87;14.20;;;13.60;99.90;;;;;;4999416;28;20179;-91
2022/04/25 14:27:09;;;;;;;28.87;20.57;;;13.80;99.90;;;;;;5014284;28;20224;-95
2022/04/25 14:29:34;;;;;;;27.57;20.53;;;14.00;99.90;;;;;;4988544;28;20190;-92
2022/04/25 14:32:00;;;;;;;30.40;19.23;;;13.80;99.90;;;;;;4978607;28;20198;-93
2022/04/25 14:34:25;;;;;;;30.63;20.40;;;13.70;99.90;;;;;;4979223;28;20282;-93
2022/04/25 14:36:51;;;;;;;29.80;19.80;;;13.90;99.90;;;;;;4993611;28;20188;-93
2022/04/25 14:39:17;;;;;;;25.07;18.90;;;13.70;99.90;;;;;;4998898;28;20191;-94
2022/04/25 14:41:42;;;;;;;30.17;18.77;;;13.90;99.90;;;;;;4998167;28;20247;-94
2022/04/25 14:44:08;;;;;;;23.37;16.70;;;13.80;99.90;;;;;;4998817;28;20184;-93
2022/04/25 14:46:36;;;;;;;21.70;17.37;;;14.00;99.90;;;;;;4998685;28;20195;-94
2022/04/25 14:49:01;;;;;;;21.80;17.77;;;14.00;99.90;;;;;;4998295;28;20188;-95
2022/04/25 14:54:20;;;;;;;22.37;16.73;;;13.00;99.90;;;;;;5015824;28;20271;-94
2022/04/25 14:56:47;;;;;;;25.80;17.60;;;12.60;99.90;;;;;;4998164;28;20177;-93
2022/04/25 14:59:15;;;;;;;23.10;16.13;;;12.60;99.90;;;;;;4997976;28;20626;-92
2022/04/25 15:01:40;;;;;;;22.00;16.57;;;12.30;99.90;;;;;;4998107;28;20629;-94
2022/04/25 15:04:06;;;;;;;23.43;18.23;;;12.20;99.90;;;;;;4997937;28;20173;-94
2022/04/25 15:06:32;;;;;;;25.73;17.93;;;12.30;99.90;;;;;;4998072;28;20276;-95
2022/04/25 15:08:57;;;;;;;28.13;18.23;;;12.40;99.90;;;;;;4998069;28;20315;-93
2022/04/25 15:11:23;;;;;;;27.03;17.77;;;12.30;99.90;;;;;;4997747;28;20205;-95
2022/04/25 15:13:48;;;;;;;30.37;18.27;;;12.50;99.90;;;;;;4997840;28;20178;-94
2022/04/25 15:16:15;;;;;;;29.37;16.73;;;12.40;99.90;;;;;;4997923;28;20225;-93
2022/04/25 15:18:41;;;;;;;23.37;16.70;;;12.20;99.90;;;;;;4997612;28;20217;-93
2022/04/25 15:21:11;;;;;;;46.73;18.87;;;11.90;99.90;;;;;;4995560;28;20233;-93
2022/04/25 15:23:40;;;;;;;41.10;19.43;;;11.50;99.90;;;;;;4982747;28;20194;-94
2022/04/25 15:26:08;;;;;;;38.40;19.90;;;11.40;99.90;;;;;;4993683;28;20606;-93
2022/04/25 15:28:34;;;;;;;32.93;21.23;;;11.30;99.90;;;;;;4997313;28;20188;-91
2022/04/25 15:31:00;;;;;;;34.63;21.03;;;11.30;99.90;;;;;;4984058;28;20178;-90
2022/04/25 15:33:26;;;;;;;34.43;22.97;;;11.30;99.90;;;;;;4997350;28;20264;-91
2022/04/25 15:35:51;;;;;;;34.40;22.47;;;11.30;99.90;;;;;;4996535;28;20181;-91
2022/04/25 15:38:17;;;;;;;36.57;22.73;;;11.30;99.90;;;;;;4996358;28;20673;-91
2022/04/25 15:40:43;;;;;;;36.93;23.57;;;11.50;99.90;;;;;;4997717;28;20189;-92
2022/04/25 15:43:09;;;;;;;39.67;24.67;;;11.70;99.90;;;;;;4997047;28;20209;-90
2022/04/25 15:45:39;;;;;;;41.83;25.13;;;11.70;99.90;;;;;;4996746;28;20187;-91
2022/04/25 15:48:05;;;;;;;41.40;24.90;;;11.90;99.90;;;;;;4978320;28;20527;-91
2022/04/25 15:50:31;;;;;;;40.50;25.93;;;12.00;99.90;;;;;;4993695;28;20664;-91
2022/04/25 15:52:57;;;;;;;42.43;24.93;;;12.00;99.90;;;;;;4996794;28;20173;-91
2022/04/25 15:58:07;;;;;;;40.53;24.97;;;12.20;99.90;;;;;;5012770;28;20276;-94
2022/04/25 16:00:32;;;;;;;41.77;25.20;;;12.20;99.90;;;;;;4997077;28;20212;-92
2022/04/25 16:02:58;;;;;;;42.50;25.73;;;12.30;99.90;;;;;;4997017;28;20220;-92
2022/04/25 16:05:24;;;;;;;43.83;26.47;;;12.30;99.90;;;;;;4996861;28;20166;-93
2022/04/25 16:07:50;;;;;;;38.70;25.80;;;12.20;99.90;;;;;;4992777;28;20186;-91
2022/04/25 16:10:17;;;;;;;40.87;26.23;;;12.20;99.90;;;;;;4977469;28;20262;-91
2022/04/25 16:12:46;;;;;;;35.77;23.23;;;12.40;99.90;;;;;;4984538;28;20208;-90
2022/04/25 16:15:12;;;;;;;38.47;23.10;;;12.50;99.90;;;;;;4996809;28;20210;-91
2022/04/25 16:17:38;;;;;;;34.27;22.90;;;12.70;99.90;;;;;;4996253;28;20193;-90
2022/04/25 16:20:05;;;;;;;35.67;22.87;;;12.60;99.90;;;;;;4996845;28;20271;-90
2022/04/25 16:22:31;;;;;;;36.57;24.70;;;12.60;99.90;;;;;;4990627;28;20268;-90
2022/04/25 16:24:58;;;;;;;38.93;22.83;;;12.60;99.90;;;;;;4977307;28;20190;-90
2022/04/25 16:27:24;;;;;;;38.50;22.13;;;12.50;99.90;;;;;;4978445;28;20190;-91
2022/04/25 16:29:50;;;;;;;38.83;25.13;;;12.50;99.90;;;;;;4996994;28;20192;-93
2022/04/25 16:32:19;;;;;;;40.60;25.63;;;12.30;99.90;;;;;;4983582;28;20177;-93
2022/04/25 16:34:48;;;;;;;37.57;24.37;;;12.20;99.90;;;;;;4977492;28;20202;-91
2022/04/25 16:37:15;;;;;;;42.27;26.33;;;12.20;99.90;;;;;;4976310;28;20189;-90
2022/04/25 16:39:42;;;;;;;51.53;29.80;;;12.10;99.90;;;;;;4977454;28;20548;-91
2022/04/25 16:42:09;;;;;;;51.20;29.60;;;12.10;99.90;;;;;;4976916;28;20244;-91
2022/04/25 16:44:38;;;;;;;50.13;27.47;;;12.10;99.90;;;;;;4981825;28;20256;-91
2022/04/25 16:47:08;;;;;;;50.30;27.03;;;12.10;99.90;;;;;;4987087;28;20190;-91
2022/04/25 16:49:34;;;;;;;71.70;41.23;;;12.10;99.90;;;;;;4977110;28;20192;-91
2022/04/25 16:52:00;;;;;;;48.23;29.67;;;12.20;99.90;;;;;;4976530;28;20180;-90
2022/04/25 16:54:26;;;;;;;44.27;26.70;;;12.40;99.90;;;;;;4976698;28;20714;-91
2022/04/25 16:56:52;;;;;;;43.07;25.60;;;12.40;99.90;;;;;;4979447;28;20176;-91
2022/04/25 16:59:18;;;;;;;42.53;25.27;;;12.40;99.90;;;;;;4996029;28;20237;-91
2022/04/25 17:01:45;;;;;;;33.73;21.53;;;12.40;99.90;;;;;;4986781;28;20197;-91
2022/04/25 17:04:10;;;;;;;33.20;20.97;;;12.60;99.90;;;;;;4977098;28;20270;-90
2022/04/25 17:06:36;;;;;;;33.37;20.33;;;12.50;99.90;;;;;;4976576;28;20267;-90
2022/04/25 17:09:03;;;;;;;33.57;21.67;;;12.60;99.90;;;;;;4977022;28;20177;-91
2022/04/25 17:11:29;;;;;;;34.40;21.60;;;12.60;99.90;;;;;;4982742;28;20568;-92
2022/04/25 17:13:55;;;;;;;30.87;21.67;;;12.50;99.90;;;;;;4977531;28;20193;-92
2022/04/25 17:16:20;;;;;;;33.50;21.90;;;12.50;99.90;;;;;;4976654;28;20183;-90
2022/04/25 17:18:46;;;;;;;31.57;21.37;;;12.60;99.90;;;;;;4977826;28;20181;-91
2022/04/25 17:21:12;;;;;;;30.53;20.90;;;12.70;99.90;;;;;;4977818;28;20722;-91
2022/04/25 17:23:37;;;;;;;28.33;20.27;;;12.80;99.90;;;;;;4978006;28;20704;-91
2022/04/25 17:26:05;;;;;;;28.53;20.17;;;12.80;99.90;;;;;;4987869;28;20224;-91
2022/04/25 17:28:32;;;;;;;23.07;17.57;;;12.80;99.90;;;;;;4979871;28;20630;-91
2022/04/25 17:35:20;;;;;;;23.53;17.73;;;13.00;99.90;;;;;;4979445;28;20194;-91
